| time (UTC) | temp C | wind direction | speed KPH | gust KPH | rain 1hr cm | rain 24hr cm | rain mn cm | humidity % | barometer mb |
| 20260509112649 | 10 | 209 | 12.9 | 16.1 | 0.00 | 0.00 | 0.00 | 99 | 1009.4 |
| 20260509112146 | 10 | 210 | 16.1 | 16.1 | 0.00 | 0.00 | 0.00 | 99 | 1009.5 |
| 20260509111644 | 10 | 211 | 16.1 | 20.9 | 0.00 | 0.00 | 0.00 | 99 | 1009.2 |
| 20260509111140 | 10 | 209 | 11.3 | 14.5 | 0.00 | 0.00 | 0.00 | 99 | 1009.2 |
| 20260509110637 | 9 | 200 | 12.9 | 14.5 | 0.00 | 0.00 | 0.00 | 99 | 1009.4 |
| 20260509110134 | 9 | 214 | 9.7 | 11.3 | 0.00 | 0.00 | 0.00 | 99 | 1009.2 |
| 20260509105633 | 9 | 211 | 12.9 | 16.1 | 0.00 | 0.00 | 0.00 | 99 | 1009.4 |
| 20260509105130 | 9 | 208 | 12.9 | 12.9 | 0.00 | 0.00 | 0.00 | 99 | 1009.5 |
| 20260509104627 | 9 | 210 | 11.3 | 12.9 | 0.00 | 0.00 | 0.00 | 99 | 1009.5 |
| 20260509104123 | 9 | 203 | 9.7 | 11.3 | 0.00 | 0.00 | 0.00 | 99 | 1009.6 |
| 20260509103621 | 9 | 203 | 11.3 | 12.9 | 0.00 | 0.00 | 0.00 | 99 | 1009.5 |
| 20260509103119 | 9 | 198 | 9.7 | 12.9 | 0.00 | 0.00 | 0.00 | 99 | 1009.6 |
| 20260509102616 | 9 | 211 | 9.7 | 12.9 | 0.00 | 0.00 | 0.00 | 99 | 1009.4 |
| 20260509102113 | 9 | 194 | 11.3 | 12.9 | 0.00 | 0.00 | 0.00 | 99 | 1009.5 |
| 20260509101609 | 9 | 199 | 11.3 | 12.9 | 0.00 | 0.00 | 0.00 | 99 | 1009.5 |
| 20260509101106 | 8 | 194 | 11.3 | 12.9 | 0.00 | 0.00 | 0.00 | 99 | 1009.7 |
| 20260509100603 | 8 | 195 | 8.0 | 9.7 | 0.00 | 0.00 | 0.00 | 99 | 1009.6 |
| 20260509100101 | 8 | 195 | 8.0 | 9.7 | 0.00 | 0.00 | 0.00 | 99 | 1009.9 |
| 20260509095557 | 8 | 210 | 8.0 | 9.7 | 0.00 | 0.00 | 0.00 | 99 | 1009.8 |
| 20260509095055 | 9 | 201 | 11.3 | 14.5 | 0.00 | 0.00 | 0.00 | 99 | 1009.9 |
| 20260509094550 | 9 | 210 | 8.0 | 9.7 | 0.00 | 0.00 | 0.00 | 99 | 1010.1 |
| 20260509094048 | 8 | 205 | 9.7 | 11.3 | 0.00 | 0.00 | 0.00 | 99 | 1010.0 |
| 20260509093546 | 8 | 203 | 9.7 | 12.9 | 0.00 | 0.00 | 0.00 | 99 | 1010.0 |
| 20260509093043 | 8 | 206 | 6.4 | 8.0 | 0.00 | 0.00 | 0.00 | 99 | 1009.8 |
| 20260509092541 | 8 | 209 | 9.7 | 11.3 | 0.00 | 0.00 | 0.00 | 99 | 1010.0 |
| 20260509092040 | 9 | 209 | 8.0 | 11.3 | 0.00 | 0.00 | 0.00 | 99 | 1010.0 |
| 20260509091537 | 9 | 200 | 11.3 | 11.3 | 0.00 | 0.00 | 0.00 | 99 | 1010.1 |
| 20260509091033 | 8 | 206 | 8.0 | 9.7 | 0.00 | 0.00 | 0.00 | 99 | 1009.9 |
| 20260509090531 | 8 | 178 | 8.0 | 9.7 | 0.00 | 0.00 | 0.00 | 99 | 1010.0 |
| 20260509090028 | 8 | 178 | 8.0 | 9.7 | 0.00 | 0.00 | 0.00 | 99 | 1010.2 |
| 20260509085525 | 8 | 188 | 6.4 | 8.0 | 0.00 | 0.00 | 0.00 | 99 | 1010.0 |
| 20260509085021 | 8 | 185 | 8.0 | 11.3 | 0.00 | 0.00 | 0.00 | 99 | 1009.9 |
| 20260509084518 | 8 | 191 | 11.3 | 12.9 | 0.00 | 0.00 | 0.00 | 99 | 1009.8 |
| 20260509084015 | 8 | 189 | 9.7 | 11.3 | 0.00 | 0.00 | 0.00 | 99 | 1009.6 |
| 20260509083513 | 8 | 178 | 9.7 | 11.3 | 0.00 | 0.00 | 0.00 | 99 | 1009.7 |
| 20260509083009 | 8 | 187 | 8.0 | 9.7 | 0.00 | 0.00 | 0.00 | 99 | 1009.9 |
| 20260509082507 | 8 | 181 | 8.0 | 9.7 | 0.00 | 0.00 | 0.00 | 99 | 1009.9 |
| 20260509082004 | 8 | 177 | 11.3 | 12.9 | 0.00 | 0.00 | 0.00 | 99 | 1009.9 |
| 20260509081501 | 8 | 205 | 9.7 | 11.3 | 0.00 | 0.00 | 0.00 | 99 | 1009.9 |
| 20260509080958 | 8 | 175 | 9.7 | 11.3 | 0.00 | 0.00 | 0.00 | 99 | 1010.0 |
| 20260509080456 | 8 | 176 | 8.0 | 9.7 | 0.00 | 0.00 | 0.00 | 99 | 1009.8 |
| 20260509075954 | 8 | 182 | 8.0 | 9.7 | 0.00 | 0.00 | 0.00 | 99 | 1010.2 |
| 20260509075451 | 8 | 190 | 6.4 | 8.0 | 0.00 | 0.00 | 0.00 | 99 | 1010.1 |
| 20260509074948 | 9 | 199 | 8.0 | 9.7 | 0.00 | 0.00 | 0.00 | 99 | 1010.3 |
| 20260509074446 | 8 | 207 | 6.4 | 8.0 | 0.00 | 0.00 | 0.00 | 99 | 1010.2 |
| 20260509073942 | 8 | 201 | 6.4 | 8.0 | 0.00 | 0.00 | 0.00 | 99 | 1010.1 |
| 20260509073438 | 8 | 207 | 4.8 | 4.8 | 0.00 | 0.00 | 0.00 | 99 | 1010.0 |
| 20260509072935 | 8 | 213 | 6.4 | 8.0 | 0.00 | 0.00 | 0.00 | 99 | 1010.0 |
| 20260509072432 | 8 | 205 | 4.8 | 4.8 | 0.00 | 0.00 | 0.00 | 99 | 1010.0 |
| 20260509071928 | 9 | 197 | 6.4 | 8.0 | 0.00 | 0.00 | 0.00 | 99 | 1010.0 |
| 20260509071425 | 9 | 188 | 8.0 | 9.7 | 0.00 | 0.00 | 0.00 | 99 | 1010.0 |
| 20260509070923 | 9 | 197 | 4.8 | 8.0 | 0.00 | 0.00 | 0.00 | 99 | 1010.2 |
| 20260509070420 | 9 | 187 | 6.4 | 8.0 | 0.00 | 0.00 | 0.00 | 99 | 1010.4 |
| 20260509065915 | 9 | 189 | 6.4 | 8.0 | 0.00 | 0.00 | 0.00 | 99 | 1010.2 |
| 20260509065411 | 10 | 181 | 4.8 | 8.0 | 0.00 | 0.00 | 0.00 | 99 | 1010.5 |
| 20260509064908 | 10 | 184 | 4.8 | 4.8 | 0.00 | 0.00 | 0.00 | 99 | 1010.5 |
| 20260509064405 | 10 | 179 | 6.4 | 8.0 | 0.00 | 0.00 | 0.00 | 99 | 1010.4 |
| 20260509063903 | 10 | 190 | 4.8 | 8.0 | 0.00 | 0.00 | 0.00 | 99 | 1010.6 |
| 20260509063358 | 10 | 187 | 6.4 | 8.0 | 0.00 | 0.00 | 0.00 | 99 | 1010.3 |
| 20260509062856 | 10 | 202 | 8.0 | 9.7 | 0.00 | 0.00 | 0.00 | 99 | 1010.8 |
| 20260509062353 | 10 | 210 | 8.0 | 8.0 | 0.00 | 0.00 | 0.00 | 99 | 1010.6 |
| 20260509061850 | 10 | 202 | 6.4 | 9.7 | 0.00 | 0.00 | 0.00 | 99 | 1010.6 |
| 20260509061348 | 10 | 213 | 8.0 | 9.7 | 0.00 | 0.00 | 0.00 | 99 | 1010.6 |
| 20260509060844 | 10 | 214 | 6.4 | 8.0 | 0.00 | 0.00 | 0.00 | 99 | 1010.8 |
| 20260509060342 | 10 | 204 | 9.7 | 11.3 | 0.00 | 0.00 | 0.00 | 99 | 1011.0 |
| 20260509055843 | 10 | 207 | 8.0 | 9.7 | 0.00 | 0.00 | 0.00 | 99 | 1011.0 |
| 20260509055338 | 10 | 206 | 8.0 | 8.0 | 0.00 | 0.00 | 0.00 | 99 | 1011.0 |
| 20260509054836 | 10 | 204 | 8.0 | 11.3 | 0.00 | 0.00 | 0.00 | 99 | 1010.9 |
| 20260509054332 | 10 | 189 | 8.0 | 9.7 | 0.00 | 0.00 | 0.00 | 99 | 1010.9 |
| 20260509053831 | 10 | 208 | 8.0 | 9.7 | 0.00 | 0.00 | 0.00 | 99 | 1010.9 |
| 20260509053328 | 10 | 207 | 8.0 | 9.7 | 0.00 | 0.00 | 0.00 | 99 | 1010.9 |
| 20260509052826 | 10 | 208 | 8.0 | 9.7 | 0.00 | 0.00 | 0.00 | 99 | 1010.8 |
| 20260509052323 | 10 | 201 | 9.7 | 11.3 | 0.00 | 0.00 | 0.00 | 99 | 1010.8 |
| 20260509051821 | 10 | 208 | 6.4 | 8.0 | 0.00 | 0.00 | 0.00 | 99 | 1010.8 |
| 20260509051319 | 11 | 208 | 9.7 | 11.3 | 0.00 | 0.00 | 0.00 | 99 | 1010.8 |
| 20260509050815 | 11 | 212 | 9.7 | 11.3 | 0.00 | 0.00 | 0.00 | 99 | 1010.8 |
| 20260509050311 | 11 | 173 | 6.4 | 8.0 | 0.00 | 0.00 | 0.00 | 99 | 1011.0 |
| 20260509045809 | 11 | 189 | 8.0 | 9.7 | 0.00 | 0.05 | 0.05 | 99 | 1011.3 |
| 20260509045306 | 11 | 207 | 11.3 | 11.3 | 0.00 | 0.05 | 0.05 | 99 | 1011.3 |
| 20260509044803 | 11 | 203 | 8.0 | 9.7 | 0.00 | 0.05 | 0.05 | 99 | 1011.3 |
| 20260509044300 | 11 | 196 | 8.0 | 11.3 | 0.00 | 0.05 | 0.05 | 99 | 1011.2 |
| 20260509043756 | 11 | 187 | 6.4 | 8.0 | 0.00 | 0.05 | 0.05 | 99 | 1010.9 |
| 20260509043253 | 11 | 203 | 8.0 | 9.7 | 0.00 | 0.05 | 0.05 | 99 | 1011.4 |
| 20260509042749 | 11 | 200 | 11.3 | 12.9 | 0.00 | 0.05 | 0.05 | 99 | 1011.3 |
| 20260509042245 | 11 | 204 | 8.0 | 9.7 | 0.00 | 0.05 | 0.05 | 99 | 1011.3 |
| 20260509041742 | 11 | 203 | 4.8 | 8.0 | 0.00 | 0.05 | 0.05 | 99 | 1011.8 |
| 20260509041239 | 11 | 202 | 6.4 | 8.0 | 0.00 | 0.05 | 0.05 | 99 | 1011.3 |
| 20260509040738 | 11 | 197 | 8.0 | 9.7 | 0.00 | 0.05 | 0.05 | 99 | 1011.6 |
| 20260509040234 | 11 | 199 | 8.0 | 9.7 | 0.00 | 0.05 | 0.05 | 99 | 1011.2 |
| 20260509035731 | 11 | 209 | 8.0 | 9.7 | 0.00 | 0.05 | 0.05 | 99 | 1011.5 |
| 20260509035228 | 12 | 211 | 9.7 | 12.9 | 0.00 | 0.05 | 0.05 | 98 | 1011.4 |
| 20260509034725 | 11 | 185 | 8.0 | 11.3 | 0.00 | 0.05 | 0.05 | 98 | 1011.4 |
| 20260509034223 | 11 | 197 | 8.0 | 9.7 | 0.00 | 0.05 | 0.05 | 98 | 1011.6 |
| 20260509033719 | 12 | 190 | 9.7 | 11.3 | 0.00 | 0.05 | 0.05 | 97 | 1011.8 |
| 20260509033216 | 12 | 190 | 9.7 | 11.3 | 0.00 | 0.05 | 0.05 | 97 | 1011.5 |
| 20260509032714 | 12 | 185 | 8.0 | 9.7 | 0.00 | 0.05 | 0.05 | 96 | 1011.5 |
| 20260509032210 | 12 | 185 | 8.0 | 9.7 | 0.00 | 0.05 | 0.05 | 95 | 1011.8 |
| 20260509031708 | 12 | 185 | 8.0 | 11.3 | 0.00 | 0.05 | 0.05 | 95 | 1011.6 |
| 20260509031205 | 12 | 184 | 8.0 | 9.7 | 0.00 | 0.05 | 0.05 | 95 | 1011.8 |
| 20260509030703 | 12 | 176 | 8.0 | 8.0 | 0.00 | 0.05 | 0.05 | 94 | 1012.1 |
| 20260509030200 | 12 | 191 | 8.0 | 9.7 | 0.00 | 0.05 | 0.05 | 93 | 1011.9 |
| 20260509025656 | 12 | 179 | 6.4 | 8.0 | 0.00 | 0.05 | 0.05 | 93 | 1011.9 |
| 20260509025152 | 12 | 169 | 6.4 | 8.0 | 0.00 | 0.05 | 0.05 | 93 | 1012.0 |
| 20260509024648 | 12 | 184 | 6.4 | 8.0 | 0.00 | 0.05 | 0.05 | 92 | 1012.0 |
| 20260509024144 | 12 | 202 | 6.4 | 8.0 | 0.00 | 0.05 | 0.05 | 91 | 1011.8 |
| 20260509023642 | 13 | 205 | 8.0 | 11.3 | 0.00 | 0.05 | 0.05 | 91 | 1011.9 |
| 20260509023139 | 13 | 188 | 8.0 | 9.7 | 0.00 | 0.05 | 0.05 | 90 | 1011.8 |
| 20260509022635 | 13 | 205 | 9.7 | 11.3 | 0.00 | 0.05 | 0.05 | 89 | 1011.8 |
| 20260509022133 | 13 | 194 | 6.4 | 8.0 | 0.00 | 0.05 | 0.05 | 89 | 1011.9 |
| 20260509021629 | 13 | 189 | 8.0 | 9.7 | 0.00 | 0.05 | 0.05 | 88 | 1011.9 |
| 20260509021126 | 13 | 189 | 8.0 | 9.7 | 0.00 | 0.05 | 0.05 | 88 | 1011.6 |
| 20260509020625 | 13 | 187 | 9.7 | 11.3 | 0.00 | 0.05 | 0.05 | 88 | 1011.5 |
| 20260509020121 | 13 | 207 | 12.9 | 14.5 | 0.00 | 0.05 | 0.05 | 88 | 1011.3 |
| 20260509015620 | 13 | 206 | 8.0 | 9.7 | 0.00 | 0.05 | 0.05 | 90 | 1011.6 |
| 20260509015117 | 13 | 202 | 8.0 | 9.7 | 0.00 | 0.05 | 0.05 | 89 | 1011.4 |
| 20260509014614 | 13 | 192 | 9.7 | 11.3 | 0.00 | 0.05 | 0.05 | 88 | 1011.4 |
| 20260509014110 | 13 | 199 | 8.0 | 9.7 | 0.00 | 0.05 | 0.05 | 88 | 1011.3 |
| 20260509013607 | 13 | 214 | 11.3 | 12.9 | 0.00 | 0.05 | 0.05 | 88 | 1011.6 |
| 20260509013103 | 13 | 207 | 9.7 | 11.3 | 0.00 | 0.05 | 0.05 | 88 | 1011.3 |
| 20260509012600 | 14 | 196 | 9.7 | 11.3 | 0.00 | 0.05 | 0.05 | 88 | 1011.5 |
| 20260509012056 | 14 | 197 | 11.3 | 12.9 | 0.00 | 0.05 | 0.05 | 88 | 1011.3 |
| 20260509011554 | 14 | 206 | 11.3 | 12.9 | 0.00 | 0.05 | 0.05 | 88 | 1011.4 |
| 20260509011051 | 14 | 200 | 9.7 | 11.3 | 0.00 | 0.05 | 0.05 | 89 | 1011.3 |
| 20260509010549 | 14 | 203 | 9.7 | 9.7 | 0.00 | 0.05 | 0.05 | 88 | 1011.5 |
| 20260509010046 | 15 | 201 | 14.5 | 16.1 | 0.00 | 0.05 | 0.05 | 86 | 1011.4 |
| 20260509005544 | 15 | 216 | 14.5 | 16.1 | 0.00 | 0.05 | 0.05 | 85 | 1011.2 |
| 20260509005044 | 15 | 217 | 14.5 | 16.1 | 0.00 | 0.05 | 0.05 | 83 | 1011.2 |
| 20260509004541 | 15 | 212 | 11.3 | 16.1 | 0.00 | 0.05 | 0.05 | 84 | 1011.1 |
| 20260509004037 | 15 | 214 | 17.7 | 20.9 | 0.00 | 0.05 | 0.05 | 82 | 1011.2 |
| 20260509003536 | 15 | 215 | 17.7 | 20.9 | 0.00 | 0.05 | 0.05 | 81 | 1011.3 |
| 20260509003033 | 16 | 212 | 17.7 | 20.9 | 0.00 | 0.05 | 0.05 | 78 | 1011.1 |
| 20260509002530 | 16 | 201 | 19.3 | 24.1 | 0.00 | 0.05 | 0.05 | 77 | 1011.0 |
| 20260509002028 | 16 | 224 | 9.7 | 11.3 | 0.00 | 0.05 | 0.05 | 74 | 1011.0 |
| 20260509001525 | 16 | 224 | 16.1 | 16.1 | 0.00 | 0.05 | 0.05 | 73 | 1011.1 |
| 20260509001021 | 16 | 225 | 12.9 | 12.9 | 0.00 | 0.05 | 0.05 | 73 | 1011.2 |
| 20260509000519 | 17 | 222 | 14.5 | 16.1 | 0.00 | 0.05 | 0.05 | 72 | 1011.2 |
| 20260509000015 | 17 | 227 | 16.1 | 17.7 | 0.00 | 0.05 | 0.05 | 70 | 1010.9 |
| 20260508235513 | 17 | 222 | 16.1 | 16.1 | 0.00 | 0.05 | 0.05 | 69 | 1011.1 |
| 20260508235009 | 17 | 218 | 14.5 | 16.1 | 0.00 | 0.05 | 0.05 | 69 | 1011.3 |
| 20260508234507 | 17 | 218 | 16.1 | 16.1 | 0.00 | 0.05 | 0.05 | 68 | 1011.0 |
| 20260508234003 | 17 | 234 | 14.5 | 17.7 | 0.00 | 0.05 | 0.05 | 70 | 1011.3 |
| 20260508233503 | 17 | 240 | 14.5 | 17.7 | 0.00 | 0.05 | 0.05 | 70 | 1011.1 |
| 20260508232959 | 17 | 220 | 19.3 | 22.5 | 0.00 | 0.05 | 0.05 | 69 | 1011.2 |
| 20260508232456 | 17 | 227 | 11.3 | 12.9 | 0.00 | 0.05 | 0.05 | 72 | 1010.9 |
| 20260508231953 | 17 | 233 | 17.7 | 17.7 | 0.00 | 0.05 | 0.05 | 70 | 1011.1 |
| 20260508231450 | 17 | 219 | 8.0 | 9.7 | 0.00 | 0.05 | 0.05 | 72 | 1011.1 |
| 20260508230947 | 17 | 241 | 11.3 | 12.9 | 0.00 | 0.05 | 0.05 | 72 | 1011.3 |
| 20260508230444 | 17 | 232 | 9.7 | 11.3 | 0.00 | 0.05 | 0.05 | 72 | 1011.4 |
| 20260508225941 | 17 | 239 | 12.9 | 14.5 | 0.00 | 0.05 | 0.05 | 71 | 1011.4 |
| 20260508225438 | 17 | 203 | 9.7 | 12.9 | 0.00 | 0.05 | 0.05 | 74 | 1011.4 |
| 20260508224935 | 17 | 220 | 17.7 | 17.7 | 0.00 | 0.05 | 0.05 | 71 | 1011.2 |
| 20260508224433 | 17 | 224 | 16.1 | 17.7 | 0.00 | 0.05 | 0.05 | 72 | 1011.3 |
| 20260508223930 | 17 | 223 | 17.7 | 20.9 | 0.00 | 0.05 | 0.05 | 71 | 1011.3 |
| 20260508223428 | 17 | 223 | 17.7 | 17.7 | 0.00 | 0.05 | 0.05 | 72 | 1011.3 |
| 20260508222925 | 17 | 227 | 19.3 | 20.9 | 0.00 | 0.05 | 0.05 | 71 | 1011.3 |
| 20260508222422 | 17 | 226 | 12.9 | 14.5 | 0.00 | 0.05 | 0.05 | 75 | 1011.2 |
| 20260508221918 | 17 | 217 | 22.5 | 25.7 | 0.00 | 0.05 | 0.05 | 72 | 1011.4 |
| 20260508221414 | 17 | 227 | 25.7 | 25.7 | 0.00 | 0.05 | 0.05 | 73 | 1011.3 |
| 20260508220911 | 17 | 239 | 19.3 | 22.5 | 0.00 | 0.05 | 0.05 | 73 | 1011.4 |
| 20260508220407 | 17 | 228 | 17.7 | 17.7 | 0.00 | 0.05 | 0.05 | 71 | 1011.3 |
| 20260508215903 | 18 | 226 | 14.5 | 16.1 | 0.00 | 0.05 | 0.05 | 74 | 1011.3 |
| 20260508215400 | 17 | 238 | 14.5 | 16.1 | 0.00 | 0.05 | 0.05 | 73 | 1011.2 |
| 20260508214857 | 17 | 222 | 11.3 | 12.9 | 0.00 | 0.05 | 0.05 | 75 | 1011.4 |
| 20260508214355 | 17 | 231 | 12.9 | 16.1 | 0.00 | 0.05 | 0.05 | 73 | 1011.3 |
| 20260508213851 | 17 | 227 | 14.5 | 14.5 | 0.00 | 0.05 | 0.05 | 72 | 1011.5 |
| 20260508213348 | 17 | 248 | 14.5 | 14.5 | 0.00 | 0.05 | 0.05 | 71 | 1011.6 |
| 20260508212844 | 17 | 234 | 12.9 | 16.1 | 0.00 | 0.05 | 0.05 | 73 | 1011.6 |
| 20260508212341 | 17 | 226 | 14.5 | 16.1 | 0.00 | 0.05 | 0.05 | 75 | 1011.4 |
| 20260508211836 | 17 | 219 | 14.5 | 16.1 | 0.00 | 0.05 | 0.05 | 73 | 1011.6 |
| 20260508211332 | 17 | 222 | 11.3 | 12.9 | 0.00 | 0.05 | 0.05 | 71 | 1011.6 |
| 20260508210830 | 17 | 238 | 17.7 | 20.9 | 0.00 | 0.05 | 0.05 | 70 | 1011.5 |
| 20260508210327 | 17 | 218 | 17.7 | 20.9 | 0.00 | 0.05 | 0.05 | 72 | 1011.6 |
| 20260508205824 | 17 | 216 | 8.0 | 9.7 | 0.00 | 0.05 | 0.05 | 72 | 1011.6 |
| 20260508205320 | 17 | 235 | 12.9 | 12.9 | 0.00 | 0.05 | 0.05 | 72 | 1011.8 |
| 20260508204816 | 17 | 228 | 14.5 | 14.5 | 0.00 | 0.05 | 0.05 | 72 | 1011.6 |
| 20260508204313 | 17 | 230 | 11.3 | 12.9 | 0.00 | 0.05 | 0.05 | 72 | 1011.8 |
| 20260508203809 | 17 | 229 | 14.5 | 16.1 | 0.00 | 0.05 | 0.05 | 71 | 1012.0 |
| 20260508203305 | 17 | 229 | 14.5 | 16.1 | 0.00 | 0.05 | 0.05 | 71 | 1012.0 |
| 20260508202801 | 17 | 226 | 9.7 | 12.9 | 0.00 | 0.05 | 0.05 | 73 | 1012.1 |
| 20260508202259 | 16 | 219 | 11.3 | 12.9 | 0.00 | 0.05 | 0.05 | 73 | 1012.0 |
| 20260508201756 | 17 | 230 | 11.3 | 11.3 | 0.00 | 0.05 | 0.05 | 70 | 1012.2 |
| 20260508201252 | 17 | 230 | 11.3 | 12.9 | 0.00 | 0.05 | 0.05 | 74 | 1012.4 |
| 20260508200749 | 17 | 193 | 11.3 | 11.3 | 0.00 | 0.05 | 0.05 | 71 | 1012.4 |
| 20260508200245 | 17 | 209 | 9.7 | 11.3 | 0.00 | 0.05 | 0.05 | 73 | 1012.6 |
| 20260508195741 | 17 | 211 | 11.3 | 14.5 | 0.00 | 0.05 | 0.05 | 72 | 1012.5 |
| 20260508195238 | 16 | 204 | 4.8 | 8.0 | 0.00 | 0.05 | 0.05 | 75 | 1012.7 |
| 20260508194735 | 16 | 168 | 8.0 | 11.3 | 0.00 | 0.05 | 0.05 | 72 | 1012.6 |
| 20260508194232 | 16 | 191 | 9.7 | 11.3 | 0.00 | 0.05 | 0.05 | 73 | 1012.6 |
| 20260508193729 | 16 | 183 | 11.3 | 14.5 | 0.00 | 0.05 | 0.05 | 73 | 1012.6 |
| 20260508193225 | 16 | 172 | 6.4 | 8.0 | 0.00 | 0.05 | 0.05 | 72 | 1012.5 |
| 20260508192722 | 16 | 142 | 3.2 | 3.2 | 0.00 | 0.05 | 0.05 | 71 | 1012.4 |
| 20260508192219 | 16 | 179 | 3.2 | 3.2 | 0.00 | 0.05 | 0.05 | 71 | 1012.9 |
| 20260508191716 | 16 | 155 | 6.4 | 8.0 | 0.00 | 0.05 | 0.05 | 71 | 1012.9 |
| 20260508191213 | 16 | 159 | 4.8 | 4.8 | 0.00 | 0.05 | 0.05 | 70 | 1013.1 |
| 20260508190710 | 17 | 144 | 1.6 | 1.6 | 0.00 | 0.05 | 0.05 | 69 | 1013.0 |
| 20260508190206 | 16 | 181 | 4.8 | 4.8 | 0.00 | 0.05 | 0.05 | 72 | 1013.2 |
| 20260508185703 | 17 | 167 | 6.4 | 8.0 | 0.00 | 0.05 | 0.05 | 70 | 1013.2 |
| 20260508185200 | 16 | 240 | 0.0 | 1.6 | 0.00 | 0.05 | 0.05 | 70 | 1013.1 |
| 20260508184658 | 16 | 240 | 0.0 | 1.6 | 0.00 | 0.05 | 0.05 | 70 | 1013.0 |
| 20260508184155 | 16 | 240 | 4.8 | 4.8 | 0.00 | 0.05 | 0.05 | 71 | 1013.3 |
| 20260508183652 | 16 | 205 | 4.8 | 4.8 | 0.00 | 0.05 | 0.05 | 71 | 1013.4 |
| 20260508183147 | 16 | 169 | 3.2 | 3.2 | 0.00 | 0.05 | 0.05 | 73 | 1013.5 |
| 20260508182644 | 16 | 102 | 0.0 | 0.0 | 0.00 | 0.05 | 0.05 | 75 | 1013.5 |
| 20260508182140 | 16 | 102 | 1.6 | 1.6 | 0.00 | 0.05 | 0.05 | 75 | 1013.6 |
| 20260508181636 | 16 | 117 | 0.0 | 3.2 | 0.00 | 0.05 | 0.05 | 75 | 1013.6 |
| 20260508181134 | 16 | 107 | 1.6 | 1.6 | 0.00 | 0.05 | 0.05 | 78 | 1013.5 |
| 20260508180630 | 16 | 110 | 3.2 | 3.2 | 0.00 | 0.05 | 0.05 | 76 | 1013.8 |
| 20260508180127 | 16 | 175 | 6.4 | 8.0 | 0.00 | 0.05 | 0.05 | 77 | 1013.9 |
| 20260508175624 | 15 | 175 | 3.2 | 3.2 | 0.00 | 0.05 | 0.05 | 77 | 1013.7 |
| 20260508175121 | 16 | 166 | 1.6 | 1.6 | 0.00 | 0.05 | 0.05 | 77 | 1013.8 |
| 20260508174618 | 16 | 185 | 8.0 | 11.3 | 0.00 | 0.05 | 0.05 | 76 | 1013.8 |
| 20260508174115 | 16 | 141 | 4.8 | 8.0 | 0.00 | 0.05 | 0.05 | 77 | 1013.9 |
| 20260508173612 | 16 | 189 | 4.8 | 4.8 | 0.00 | 0.05 | 0.05 | 76 | 1014.0 |
| 20260508173108 | 15 | 161 | 4.8 | 8.0 | 0.00 | 0.05 | 0.05 | 77 | 1014.4 |
| 20260508172605 | 16 | 180 | 11.3 | 11.3 | 0.00 | 0.05 | 0.05 | 77 | 1014.3 |
| 20260508172101 | 15 | 196 | 8.0 | 9.7 | 0.00 | 0.05 | 0.05 | 77 | 1014.5 |
| 20260508171558 | 15 | 208 | 11.3 | 12.9 | 0.00 | 0.05 | 0.05 | 78 | 1014.3 |
| 20260508171054 | 15 | 163 | 6.4 | 8.0 | 0.00 | 0.05 | 0.05 | 78 | 1014.5 |
| 20260508170552 | 15 | 215 | 9.7 | 9.7 | 0.00 | 0.05 | 0.05 | 79 | 1014.8 |
| 20260508170049 | 16 | 176 | 4.8 | 4.8 | 0.00 | 0.05 | 0.05 | 77 | 1014.9 |
| 20260508165546 | 15 | 207 | 4.8 | 8.0 | 0.00 | 0.05 | 0.05 | 78 | 1014.7 |
| 20260508165043 | 16 | 216 | 9.7 | 11.3 | 0.00 | 0.05 | 0.05 | 76 | 1014.8 |
| 20260508164540 | 16 | 188 | 6.4 | 9.7 | 0.00 | 0.05 | 0.05 | 76 | 1014.7 |
| 20260508164036 | 16 | 151 | 8.0 | 11.3 | 0.00 | 0.05 | 0.05 | 77 | 1014.9 |
| 20260508163534 | 15 | 187 | 11.3 | 14.5 | 0.00 | 0.05 | 0.05 | 78 | 1015.0 |
| 20260508163030 | 15 | 167 | 6.4 | 8.0 | 0.00 | 0.05 | 0.05 | 77 | 1015.2 |
| 20260508162527 | 15 | 193 | 11.3 | 14.5 | 0.00 | 0.05 | 0.05 | 78 | 1015.2 |
| 20260508162025 | 15 | 144 | 3.2 | 3.2 | 0.00 | 0.05 | 0.05 | 81 | 1015.0 |
| 20260508161521 | 15 | 177 | 4.8 | 4.8 | 0.00 | 0.05 | 0.05 | 79 | 1015.0 |
| 20260508161018 | 15 | 167 | 4.8 | 4.8 | 0.00 | 0.05 | 0.05 | 81 | 1015.1 |
| 20260508160517 | 15 | 143 | 6.4 | 8.0 | 0.00 | 0.05 | 0.05 | 82 | 1015.3 |
| 20260508160014 | 15 | 180 | 8.0 | 9.7 | 0.00 | 0.05 | 0.05 | 85 | 1015.3 |
| 20260508155510 | 14 | 167 | 8.0 | 9.7 | 0.00 | 0.05 | 0.05 | 84 | 1015.4 |
| 20260508155008 | 15 | 170 | 9.7 | 11.3 | 0.00 | 0.05 | 0.05 | 85 | 1015.7 |
| 20260508154505 | 14 | 176 | 11.3 | 12.9 | 0.00 | 0.05 | 0.05 | 84 | 1015.5 |
| 20260508154001 | 14 | 220 | 6.4 | 8.0 | 0.00 | 0.05 | 0.05 | 87 | 1015.4 |
| 20260508153458 | 14 | 187 | 11.3 | 12.9 | 0.00 | 0.05 | 0.05 | 85 | 1015.5 |
| 20260508152955 | 13 | 139 | 8.0 | 11.3 | 0.00 | 0.05 | 0.05 | 88 | 1015.5 |
| 20260508152451 | 13 | 205 | 8.0 | 9.7 | 0.00 | 0.05 | 0.05 | 86 | 1015.8 |
| 20260508151948 | 13 | 217 | 12.9 | 16.1 | 0.00 | 0.05 | 0.05 | 86 | 1015.5 |
| 20260508151444 | 13 | 173 | 12.9 | 14.5 | 0.00 | 0.05 | 0.05 | 87 | 1015.6 |
| 20260508150941 | 13 | 186 | 8.0 | 11.3 | 0.00 | 0.05 | 0.05 | 90 | 1015.5 |
| 20260508150438 | 13 | 184 | 12.9 | 14.5 | 0.00 | 0.05 | 0.05 | 88 | 1015.6 |
| 20260508145933 | 13 | 197 | 11.3 | 12.9 | 0.00 | 0.05 | 0.05 | 91 | 1015.7 |
| 20260508145430 | 13 | 198 | 9.7 | 11.3 | 0.00 | 0.05 | 0.05 | 91 | 1015.8 |
| 20260508144927 | 13 | 166 | 12.9 | 14.5 | 0.00 | 0.05 | 0.05 | 91 | 1015.9 |
| 20260508144425 | 13 | 194 | 11.3 | 12.9 | 0.00 | 0.05 | 0.05 | 92 | 1015.9 |
| 20260508143922 | 13 | 181 | 6.4 | 8.0 | 0.00 | 0.05 | 0.05 | 93 | 1015.7 |
| 20260508143419 | 13 | 200 | 9.7 | 11.3 | 0.00 | 0.05 | 0.05 | 92 | 1015.8 |
| 20260508142916 | 13 | 181 | 8.0 | 11.3 | 0.00 | 0.05 | 0.05 | 91 | 1015.7 |
| 20260508142413 | 13 | 211 | 8.0 | 9.7 | 0.00 | 0.05 | 0.05 | 91 | 1015.6 |
| 20260508141909 | 12 | 183 | 8.0 | 9.7 | 0.00 | 0.05 | 0.05 | 92 | 1015.8 |
| 20260508141406 | 12 | 204 | 11.3 | 12.9 | 0.00 | 0.05 | 0.05 | 92 | 1015.9 |
| 20260508140904 | 12 | 190 | 12.9 | 14.5 | 0.00 | 0.05 | 0.05 | 93 | 1015.8 |
| 20260508140401 | 12 | 191 | 11.3 | 11.3 | 0.00 | 0.05 | 0.05 | 91 | 1015.7 |
| 20260508135856 | 12 | 198 | 11.3 | 11.3 | 0.00 | 0.05 | 0.05 | 94 | 1015.8 |
| 20260508135352 | 12 | 213 | 8.0 | 9.7 | 0.00 | 0.05 | 0.05 | 94 | 1015.8 |
| 20260508134849 | 11 | 210 | 11.3 | 12.9 | 0.00 | 0.05 | 0.05 | 96 | 1015.8 |
| 20260508134346 | 12 | 193 | 11.3 | 12.9 | 0.00 | 0.05 | 0.05 | 97 | 1015.9 |
| 20260508133842 | 11 | 187 | 11.3 | 12.9 | 0.18 | 0.05 | 0.05 | 98 | 1015.8 |
| 20260508133341 | 11 | 192 | 14.5 | 16.1 | 0.18 | 0.05 | 0.05 | 97 | 1015.8 |
| 20260508132837 | 11 | 176 | 12.9 | 14.5 | 0.18 | 0.05 | 0.05 | 99 | 1015.7 |
| 20260508132335 | 11 | 193 | 9.7 | 11.3 | 0.00 | 0.03 | 0.03 | 99 | 1015.9 |
| 20260508131831 | 11 | 207 | 8.0 | 11.3 | 0.00 | 0.03 | 0.03 | 99 | 1015.9 |
| 20260508131327 | 11 | 179 | 6.4 | 8.0 | 0.00 | 0.03 | 0.03 | 99 | 1016.0 |
| 20260508130824 | 10 | 173 | 9.7 | 11.3 | 0.00 | 0.03 | 0.03 | 99 | 1015.9 |
| 20260508130321 | 10 | 186 | 9.7 | 11.3 | 0.00 | 0.03 | 0.03 | 99 | 1015.9 |
| 20260508125817 | 10 | 184 | 6.4 | 8.0 | 0.00 | 0.03 | 0.03 | 99 | 1016.2 |
| 20260508125313 | 10 | 177 | 9.7 | 9.7 | 0.00 | 0.03 | 0.03 | 99 | 1016.0 |
| 20260508124811 | 10 | 175 | 8.0 | 9.7 | 0.00 | 0.03 | 0.03 | 99 | 1015.9 |
| 20260508124308 | 9 | 175 | 6.4 | 9.7 | 0.00 | 0.03 | 0.03 | 99 | 1015.8 |
| 20260508123806 | 9 | 184 | 9.7 | 11.3 | 0.00 | 0.03 | 0.03 | 99 | 1016.1 |
| 20260508123304 | 9 | 189 | 11.3 | 11.3 | 0.00 | 0.03 | 0.03 | 99 | 1015.9 |
| 20260508122800 | 8 | 178 | 1.6 | 1.6 | 0.00 | 0.03 | 0.03 | 99 | 1015.7 |
| 20260508122257 | 8 | 178 | 1.6 | 1.6 | 0.00 | 0.03 | 0.03 | 99 | 1015.9 |
| 20260508121755 | 8 | 185 | 4.8 | 4.8 | 0.00 | 0.03 | 0.03 | 99 | 1016.0 |
| 20260508121253 | 8 | 168 | 4.8 | 4.8 | 0.00 | 0.03 | 0.03 | 99 | 1016.1 |
| 20260508120750 | 8 | 173 | 4.8 | 4.8 | 0.13 | 0.03 | 0.03 | 99 | 1016.1 |
| 20260508120248 | 8 | 200 | 6.4 | 8.0 | 0.13 | 0.03 | 0.03 | 99 | 1016.2 |
| 20260508115745 | 8 | 190 | 4.8 | 4.8 | 0.00 | 0.00 | 0.00 | 99 | 1016.2 |
| 20260508115243 | 8 | 165 | 1.6 | 1.6 | 0.00 | 0.00 | 0.00 | 99 | 1016.0 |
| 20260508114739 | 8 | 164 | 0.0 | 0.0 | 0.00 | 0.00 | 0.00 | 99 | 1015.7 |
| 20260508114236 | 8 | 164 | 1.6 | 3.2 | 0.00 | 0.00 | 0.00 | 99 | 1015.8 |
| 20260508113732 | 8 | 177 | 3.2 | 3.2 | 0.00 | 0.00 | 0.00 | 99 | 1015.8 |
| 20260508113231 | 8 | 193 | 4.8 | 8.0 | 0.00 | 0.00 | 0.00 | 99 | 1015.8 |